YEN weather

Estevan Airport
Estevan, Saskatchewan, Canada

Public forecast

Using degrees Celsius for public forecast. Weather courtesy of forecast.io.

Current aviation weather report (METAR) for Estevan Airport

Retrieved 2020/06/01 15:00 UTC (46 minutes ago):

CYEN 011500Z AUTO 29020G26KT 9SM CLR 20/07 A2982 RMK SLP098 DENSITY ALT 3000FT

Aviation forecast (TAF) for Estevan Airport

Retrieved 2020/06/01 12:39 UTC (3 hours ago):

TAF CYEN 011138Z 0112/0124 29012KT P6SM SKC RMK FCST BASED ON AUTO OBS NXT FCST BY 011800Z